createdAt,value
2023-04-22T00:00:35.726Z,5.77
2023-04-22T00:03:03.741Z,5.75
2023-04-22T00:05:30.658Z,5.72
2023-04-22T00:07:57.320Z,5.69
2023-04-22T00:10:24.201Z,5.79
2023-04-22T00:12:50.958Z,5.79
2023-04-22T00:15:21.510Z,5.76
2023-04-22T00:17:49.324Z,5.63
2023-04-22T00:20:16.386Z,5.63
2023-04-22T00:22:43.079Z,5.55
2023-04-22T00:25:09.810Z,5.50
2023-04-22T00:27:36.423Z,5.48
2023-04-22T00:30:03.596Z,5.50
2023-04-22T00:32:30.325Z,5.40
2023-04-22T00:34:58.379Z,5.36
2023-04-22T00:37:25.579Z,5.31
2023-04-22T00:39:52.229Z,5.28
2023-04-22T00:42:18.897Z,5.26
2023-04-22T00:44:47.013Z,5.30
2023-04-22T00:47:13.767Z,5.28
2023-04-22T00:49:40.774Z,5.24
2023-04-22T00:52:07.687Z,5.18
2023-04-22T00:54:38.339Z,5.24
2023-04-22T00:57:05.372Z,5.20
2023-04-22T00:59:32.066Z,5.14
2023-04-22T01:02:04.819Z,5.15
2023-04-22T01:08:17.065Z,4.98
2023-04-22T01:10:46.431Z,5.02
2023-04-22T01:13:13.057Z,4.99
2023-04-22T01:15:39.720Z,4.98
2023-04-22T01:18:11.892Z,4.92
2023-04-22T01:20:42.047Z,4.99
2023-04-22T01:23:17.163Z,5.01
2023-04-22T01:25:43.872Z,5.24
2023-04-22T01:28:10.685Z,5.20
2023-04-22T01:30:37.656Z,4.94
2023-04-22T01:33:04.386Z,5.08
2023-04-22T01:35:36.741Z,4.96
2023-04-22T01:38:04.762Z,4.84
2023-04-22T01:40:32.343Z,4.90
2023-04-22T01:43:02.697Z,4.83
2023-04-22T01:45:29.755Z,4.84
2023-04-22T01:47:56.429Z,4.66
2023-04-22T01:50:23.764Z,4.68
2023-04-22T01:52:50.370Z,4.72
2023-04-22T01:55:17.169Z,4.81
2023-04-22T01:57:43.838Z,4.79
2023-04-22T02:00:11.019Z,4.84
2023-04-22T02:02:37.710Z,4.85
2023-04-22T02:05:06.240Z,4.86
2023-04-22T02:07:32.891Z,4.77
2023-04-22T02:09:59.543Z,4.96
2023-04-22T02:12:26.158Z,4.89
2023-04-22T02:14:52.779Z,4.79
2023-04-22T02:17:19.392Z,4.81
2023-04-22T02:19:46.082Z,4.88
2023-04-22T02:22:12.741Z,4.91
2023-04-22T02:24:39.439Z,5.05
2023-04-22T02:27:06.330Z,5.01
2023-04-22T02:29:33.034Z,5.06
2023-04-22T02:31:59.999Z,5.04
2023-04-22T02:34:26.965Z,5.09
2023-04-22T02:36:53.632Z,4.93
2023-04-22T02:39:20.403Z,5.02
2023-04-22T02:41:47.006Z,5.02
2023-04-22T02:44:13.669Z,5.06
2023-04-22T02:46:40.293Z,5.07
2023-04-22T02:49:06.948Z,5.08
2023-04-22T02:51:33.527Z,5.18
2023-04-22T02:54:00.293Z,5.09
2023-04-22T02:56:27.405Z,5.13
2023-04-22T02:58:54.102Z,5.11
2023-04-22T03:01:20.831Z,5.13
2023-04-22T03:03:47.694Z,5.22
2023-04-22T03:06:14.481Z,5.26
2023-04-22T03:08:41.167Z,5.32
2023-04-22T03:11:07.755Z,5.40
2023-04-22T03:13:34.367Z,5.42
2023-04-22T03:16:01.077Z,5.28
2023-04-22T03:18:27.822Z,5.52
2023-04-22T03:20:54.469Z,5.34
2023-04-22T03:23:21.126Z,5.40
2023-04-22T03:25:47.760Z,5.27
2023-04-22T03:28:14.427Z,5.30
2023-04-22T03:30:41.074Z,5.23
2023-04-22T03:33:07.760Z,5.25
2023-04-22T03:35:34.671Z,5.14
2023-04-22T03:38:01.277Z,5.30
2023-04-22T03:40:27.984Z,5.20
2023-04-22T03:42:54.631Z,5.13
2023-04-22T03:45:21.544Z,5.09
2023-04-22T03:47:48.260Z,5.15
2023-04-22T03:50:14.933Z,5.01
2023-04-22T03:52:41.568Z,5.08
2023-04-22T03:55:08.604Z,4.94
2023-04-22T03:57:35.220Z,5.06
2023-04-22T04:00:01.913Z,4.98
2023-04-22T04:02:28.725Z,4.96
2023-04-22T04:04:55.683Z,4.88
2023-04-22T04:07:22.674Z,4.94
2023-04-22T04:09:49.428Z,4.92
2023-04-22T04:12:16.180Z,4.94
2023-04-22T04:14:42.943Z,4.97
2023-04-22T04:17:09.849Z,4.87
2023-04-22T04:19:37.072Z,4.98
2023-04-22T04:22:03.742Z,4.86
2023-04-22T04:24:30.375Z,4.97
2023-04-22T04:26:58.094Z,4.94
2023-04-22T04:29:25.241Z,5.04
2023-04-22T04:31:52.026Z,5.15
2023-04-22T04:34:19.230Z,5.07
2023-04-22T04:36:46.579Z,5.20
2023-04-22T04:39:13.204Z,5.20
2023-04-22T04:41:41.202Z,5.15
2023-04-22T04:44:07.909Z,5.09
2023-04-22T04:46:34.658Z,5.14
2023-04-22T04:49:01.826Z,5.25
2023-04-22T04:51:28.415Z,5.40
2023-04-22T04:53:55.052Z,5.44
2023-04-22T04:56:21.654Z,5.48
2023-04-22T04:58:48.288Z,5.59
2023-04-22T05:01:14.943Z,5.73
2023-04-22T05:03:41.974Z,5.73
2023-04-22T05:06:08.700Z,5.83
2023-04-22T05:08:35.886Z,5.84
2023-04-22T05:11:02.483Z,5.95
2023-04-22T05:13:29.138Z,6.09
2023-04-22T05:15:55.796Z,6.30
2023-04-22T05:18:22.646Z,6.25
2023-04-22T05:20:49.346Z,6.32
2023-04-22T05:23:15.972Z,6.83
2023-04-22T05:25:43.351Z,7.25
2023-04-22T05:28:09.980Z,7.39
2023-04-22T05:30:36.573Z,7.49
2023-04-22T05:33:03.237Z,7.61
2023-04-22T05:35:29.927Z,7.63
2023-04-22T05:37:56.578Z,7.72
2023-04-22T05:40:23.189Z,7.67
2023-04-22T05:42:49.891Z,7.84
2023-04-22T05:45:16.609Z,8.30
2023-04-22T05:47:43.348Z,8.25
2023-04-22T05:50:10.285Z,8.39
2023-04-22T05:52:37.766Z,8.34
2023-04-22T05:55:04.979Z,8.28
2023-04-22T05:57:31.944Z,8.48
2023-04-22T06:00:00.212Z,8.71
2023-04-22T06:02:26.999Z,8.89
2023-04-22T06:04:54.054Z,8.98
2023-04-22T06:07:21.038Z,9.01
2023-04-22T06:09:47.802Z,9.14
2023-04-22T06:12:14.483Z,9.49
2023-04-22T06:14:41.096Z,9.69
2023-04-22T06:17:09.627Z,10.54
2023-04-22T06:19:37.182Z,11.84
2023-04-22T06:22:04.041Z,13.58
2023-04-22T06:24:30.816Z,15.01
2023-04-22T06:26:58.244Z,16.43
2023-04-22T06:29:24.913Z,16.45
2023-04-22T06:31:51.719Z,16.96
2023-04-22T06:34:18.332Z,17.48
2023-04-22T06:36:44.971Z,17.90
2023-04-22T06:39:11.556Z,17.78
2023-04-22T06:41:40.108Z,18.33
2023-04-22T06:44:08.032Z,18.19
2023-04-22T06:46:34.732Z,18.48
2023-04-22T06:49:01.368Z,18.32
2023-04-22T06:51:28.007Z,17.94
2023-04-22T06:53:54.593Z,18.16
2023-04-22T06:56:21.270Z,18.04
2023-04-22T06:58:47.871Z,18.05
2023-04-22T07:01:14.493Z,17.28
2023-04-22T07:03:41.364Z,17.20
2023-04-22T07:06:09.167Z,16.68
2023-04-22T07:08:35.840Z,16.65
2023-04-22T07:11:02.470Z,16.59
2023-04-22T07:13:29.182Z,16.86
2023-04-22T07:15:55.914Z,16.48
2023-04-22T07:18:22.806Z,16.74
2023-04-22T07:20:49.501Z,17.01
2023-04-22T07:23:16.177Z,17.20
2023-04-22T07:25:43.192Z,17.17
2023-04-22T07:28:10.393Z,17.13
2023-04-22T07:30:37.265Z,17.27
2023-04-22T07:33:04.320Z,17.33
2023-04-22T07:35:33.825Z,17.34
2023-04-22T07:38:03.568Z,17.32
2023-04-22T07:40:30.302Z,17.54
2023-04-22T07:42:57.006Z,17.68
2023-04-22T07:45:24.062Z,17.76
2023-04-22T07:47:51.257Z,17.95
2023-04-22T07:50:17.932Z,18.11
2023-04-22T07:52:44.576Z,18.16
2023-04-22T07:55:14.174Z,18.13
2023-04-22T07:57:40.829Z,18.18
2023-04-22T08:00:08.924Z,17.96
2023-04-22T08:02:35.685Z,18.16
2023-04-22T08:05:02.490Z,18.28
2023-04-22T08:07:32.930Z,18.25
2023-04-22T08:10:00.505Z,18.21
2023-04-22T08:12:27.323Z,18.36
2023-04-22T08:14:54.201Z,18.42
2023-04-22T08:17:22.145Z,18.37
2023-04-22T08:19:49.146Z,18.35
2023-04-22T08:22:17.834Z,18.27
2023-04-22T08:24:44.591Z,18.36
2023-04-22T08:27:11.334Z,18.35
2023-04-22T08:29:38.405Z,18.28
2023-04-22T08:32:05.380Z,18.42
2023-04-22T08:34:32.027Z,18.57
2023-04-22T08:36:58.757Z,18.65
2023-04-22T08:39:25.531Z,18.72
2023-04-22T08:41:53.354Z,18.71
2023-04-22T08:44:20.247Z,18.82
2023-04-22T08:46:47.208Z,18.83
2023-04-22T08:49:15.364Z,18.67
2023-04-22T08:51:43.709Z,18.86
2023-04-22T08:54:13.329Z,19.35
2023-04-22T08:56:42.618Z,19.60
2023-04-22T08:59:13.239Z,19.81
2023-04-22T09:01:43.425Z,20.04
2023-04-22T09:04:11.454Z,19.96
2023-04-22T09:06:38.980Z,20.33
2023-04-22T09:09:08.530Z,20.55
2023-04-22T09:11:36.013Z,20.73
2023-04-22T09:14:04.197Z,20.44
2023-04-22T09:16:32.192Z,20.56
2023-04-22T09:18:59.034Z,20.88
2023-04-22T09:21:27.936Z,21.15
2023-04-22T09:23:55.900Z,21.34
2023-04-22T09:26:24.373Z,21.60
2023-04-22T09:28:51.878Z,21.80
2023-04-22T09:31:18.626Z,21.97
2023-04-22T09:33:52.932Z,22.21
2023-04-22T09:36:24.218Z,21.91
2023-04-22T09:38:55.512Z,22.03
2023-04-22T09:41:29.642Z,22.06
2023-04-22T09:43:57.923Z,22.09
2023-04-22T09:46:25.906Z,22.24
2023-04-22T09:48:53.623Z,22.40
2023-04-22T09:51:20.498Z,22.55
2023-04-22T09:54:10.238Z,22.26
2023-04-22T09:57:07.315Z,22.27
2023-04-22T09:59:35.246Z,22.08
2023-04-22T10:02:06.864Z,22.11
2023-04-22T10:04:34.196Z,22.27
2023-04-22T10:07:02.800Z,22.52
2023-04-22T10:09:29.470Z,22.10
2023-04-22T10:11:58.677Z,22.19
2023-04-22T10:14:25.901Z,21.89
2023-04-22T10:16:57.486Z,21.98
2023-04-22T10:19:25.040Z,22.23
2023-04-22T10:21:56.349Z,22.38
2023-04-22T10:24:26.195Z,22.74
2023-04-22T10:27:00.362Z,22.37
2023-04-22T10:29:39.212Z,22.60
2023-04-22T10:32:27.091Z,22.07
2023-04-22T10:35:11.955Z,22.41
2023-04-22T10:37:41.703Z,22.29
2023-04-22T10:40:16.546Z,22.42
2023-04-22T10:42:51.171Z,22.27
2023-04-22T10:45:17.847Z,22.06
2023-04-22T10:47:46.221Z,22.58
2023-04-22T10:50:22.212Z,22.98
2023-04-22T10:52:50.070Z,23.03
2023-04-22T10:55:16.850Z,22.74
2023-04-22T10:57:45.290Z,23.10
2023-04-22T11:00:41.814Z,22.82
2023-04-22T11:03:16.405Z,22.27
2023-04-22T11:05:43.990Z,22.95
2023-04-22T11:08:22.957Z,23.00
2023-04-22T11:10:51.360Z,23.14
2023-04-22T11:13:20.586Z,22.89
2023-04-22T11:15:57.202Z,22.66
2023-04-22T11:18:25.697Z,22.79
2023-04-22T11:20:53.638Z,23.05
2023-04-22T11:23:26.457Z,22.98
2023-04-22T11:26:04.224Z,23.14
2023-04-22T11:28:31.464Z,23.07
2023-04-22T11:31:09.910Z,22.63
2023-04-22T11:33:38.489Z,22.51
2023-04-22T11:36:05.946Z,22.59
2023-04-22T11:38:33.161Z,22.90
2023-04-22T11:40:59.829Z,22.90
2023-04-22T11:43:26.493Z,22.79
2023-04-22T11:45:55.772Z,23.17
2023-04-22T11:48:22.509Z,23.44
2023-04-22T11:50:49.139Z,23.58
2023-04-22T11:53:20.939Z,23.79
2023-04-22T11:55:53.620Z,23.89
2023-04-22T11:58:24.849Z,24.18
2023-04-22T12:00:53.526Z,24.21
2023-04-22T12:03:28.687Z,24.40
2023-04-22T12:05:57.709Z,24.21
2023-04-22T12:08:25.200Z,23.95
2023-04-22T12:10:56.873Z,24.08
2023-04-22T12:13:36.686Z,24.34
2023-04-22T12:16:13.719Z,24.52
2023-04-22T12:18:42.504Z,24.41
2023-04-22T12:21:10.924Z,24.09
2023-04-22T12:23:48.845Z,24.18
2023-04-22T12:26:16.957Z,24.33
2023-04-22T12:28:44.597Z,24.32
2023-04-22T12:31:12.443Z,24.22
2023-04-22T12:33:39.430Z,24.28
2023-04-22T12:36:06.709Z,24.35
2023-04-22T12:38:33.942Z,24.28
2023-04-22T12:41:00.602Z,24.28
2023-04-22T12:43:27.397Z,24.30
2023-04-22T12:45:54.118Z,24.03
2023-04-22T12:48:20.779Z,23.86
2023-04-22T12:50:47.737Z,23.68
2023-04-22T12:53:15.092Z,23.62
2023-04-22T12:55:42.955Z,23.75
2023-04-22T12:58:11.339Z,23.74
2023-04-22T13:00:37.978Z,23.41
2023-04-22T13:03:04.816Z,23.47
2023-04-22T13:05:31.481Z,23.57
2023-04-22T13:08:06.551Z,23.68
2023-04-22T13:10:35.402Z,23.67
2023-04-22T13:13:16.773Z,23.55
2023-04-22T13:15:45.349Z,23.40
2023-04-22T13:18:12.125Z,23.40
2023-04-22T13:20:39.832Z,23.28
2023-04-22T13:23:06.656Z,23.41
2023-04-22T13:25:33.302Z,23.34
2023-04-22T13:27:59.940Z,23.06
2023-04-22T13:30:26.587Z,23.15
2023-04-22T13:32:53.279Z,23.24
2023-04-22T13:35:19.986Z,23.14
2023-04-22T13:37:47.179Z,23.20
2023-04-22T13:40:13.912Z,23.28
2023-04-22T13:42:40.538Z,23.38
2023-04-22T13:45:07.822Z,23.21
2023-04-22T13:47:34.476Z,22.95
2023-04-22T13:50:05.389Z,23.07
2023-04-22T13:52:32.199Z,23.22
2023-04-22T13:54:58.836Z,23.26
2023-04-22T13:57:25.948Z,23.41
2023-04-22T13:59:52.619Z,23.46
2023-04-22T14:02:19.236Z,23.53
2023-04-22T14:04:46.047Z,23.42
2023-04-22T14:07:13.062Z,23.33
2023-04-22T14:09:39.836Z,23.41
2023-04-22T14:12:07.487Z,23.41
2023-04-22T14:14:34.114Z,23.50
2023-04-22T14:17:00.858Z,23.44
2023-04-22T14:19:29.006Z,23.40
2023-04-22T14:21:56.215Z,23.19
2023-04-22T14:24:24.329Z,23.24
2023-04-22T14:26:54.541Z,23.27
2023-04-22T14:29:21.422Z,23.39
2023-04-22T14:31:49.853Z,23.41
2023-04-22T14:34:17.121Z,23.47
2023-04-22T14:36:44.193Z,23.51
2023-04-22T14:39:10.930Z,23.41
2023-04-22T14:41:37.570Z,23.45
2023-04-22T14:44:04.193Z,23.26
2023-04-22T14:46:30.951Z,23.05
2023-04-22T14:48:57.625Z,22.95
2023-04-22T14:51:24.264Z,22.98
2023-04-22T14:53:51.938Z,22.91
2023-04-22T14:56:18.816Z,22.92
2023-04-22T14:58:45.826Z,22.91
2023-04-22T15:01:12.537Z,22.86
2023-04-22T15:03:39.431Z,22.81
2023-04-22T15:06:06.243Z,22.83
2023-04-22T15:08:36.412Z,22.69
2023-04-22T15:11:03.033Z,22.71
2023-04-22T15:13:29.675Z,22.68
2023-04-22T15:15:57.378Z,22.62
2023-04-22T15:18:24.924Z,22.45
2023-04-22T15:20:51.603Z,22.30
2023-04-22T15:23:18.290Z,22.29
2023-04-22T15:25:45.261Z,22.28
2023-04-22T15:28:12.198Z,22.37
2023-04-22T15:30:40.658Z,22.34
2023-04-22T15:33:07.411Z,22.32
2023-04-22T15:35:34.068Z,22.30
2023-04-22T15:38:01.483Z,22.28
2023-04-22T15:40:28.098Z,22.35
2023-04-22T15:42:54.685Z,22.29
2023-04-22T15:45:21.409Z,22.40
2023-04-22T15:47:48.020Z,22.50
2023-04-22T15:50:14.681Z,22.56
2023-04-22T15:52:41.297Z,22.51
2023-04-22T15:55:08.293Z,22.48
2023-04-22T15:57:35.541Z,22.38
2023-04-22T16:00:12.957Z,22.37
2023-04-22T16:02:41.672Z,22.26
2023-04-22T16:05:08.738Z,22.30
2023-04-22T16:07:35.512Z,22.29
2023-04-22T16:10:02.410Z,22.25
2023-04-22T16:12:29.266Z,22.15
2023-04-22T16:14:56.491Z,22.06
2023-04-22T16:17:23.122Z,21.97
2023-04-22T16:19:51.630Z,21.83
2023-04-22T16:22:18.291Z,21.71
2023-04-22T16:24:44.924Z,21.57
2023-04-22T16:27:16.433Z,21.49
2023-04-22T16:29:43.789Z,21.33
2023-04-22T16:32:11.149Z,21.18
2023-04-22T16:34:38.486Z,21.23
2023-04-22T16:37:05.964Z,21.17
2023-04-22T16:39:32.803Z,21.03
2023-04-22T16:41:59.532Z,20.98
2023-04-22T16:44:26.155Z,20.89
2023-04-22T16:46:52.825Z,20.79
2023-04-22T16:49:22.403Z,20.74
2023-04-22T16:51:49.059Z,20.54
2023-04-22T16:54:15.949Z,20.54
2023-04-22T16:56:42.593Z,20.43
2023-04-22T16:59:09.231Z,20.29
2023-04-22T17:01:36.268Z,20.34
2023-04-22T17:04:03.194Z,20.34
2023-04-22T17:06:29.908Z,20.21
2023-04-22T17:08:56.545Z,20.11
2023-04-22T17:11:24.091Z,19.98
2023-04-22T17:13:51.310Z,19.78
2023-04-22T17:16:18.545Z,19.79
2023-04-22T17:18:46.945Z,19.52
2023-04-22T17:21:13.722Z,19.49
2023-04-22T17:23:40.559Z,19.42
2023-04-22T17:26:09.444Z,19.26
2023-04-22T17:28:36.172Z,19.10
2023-04-22T17:31:04.076Z,19.00
2023-04-22T17:33:31.268Z,19.00
2023-04-22T17:35:58.054Z,18.90
2023-04-22T17:38:24.725Z,18.80
2023-04-22T17:40:51.375Z,18.58
2023-04-22T17:43:17.973Z,18.42
2023-04-22T17:45:44.594Z,18.35
2023-04-22T17:48:11.204Z,18.00
2023-04-22T17:50:37.894Z,17.99
2023-04-22T17:53:04.553Z,17.84
2023-04-22T17:55:35.006Z,17.79
2023-04-22T17:58:02.501Z,17.58
2023-04-22T18:00:29.666Z,17.41
2023-04-22T18:02:56.585Z,17.38
2023-04-22T18:05:23.426Z,17.23
2023-04-22T18:07:50.170Z,17.24
2023-04-22T18:10:16.955Z,17.02
2023-04-22T18:12:43.570Z,16.91
2023-04-22T18:15:10.446Z,16.75
2023-04-22T18:17:37.068Z,16.68
2023-04-22T18:20:16.671Z,16.57
2023-04-22T18:22:44.595Z,16.56
2023-04-22T18:25:11.274Z,16.50
2023-04-22T18:27:39.005Z,16.39
2023-04-22T18:30:06.654Z,16.30
2023-04-22T18:32:33.500Z,16.03
2023-04-22T18:35:00.216Z,16.05
2023-04-22T18:37:30.719Z,16.03
2023-04-22T18:39:57.760Z,15.98
2023-04-22T18:42:24.448Z,15.94
2023-04-22T18:44:51.154Z,15.86
2023-04-22T18:47:17.801Z,15.82
2023-04-22T18:49:45.525Z,15.67
2023-04-22T18:52:12.213Z,15.54
2023-04-22T18:54:39.483Z,15.36
2023-04-22T18:57:06.687Z,15.37
2023-04-22T18:59:33.403Z,15.41
2023-04-22T19:02:00.264Z,15.27
2023-04-22T19:04:27.423Z,15.31
2023-04-22T19:06:56.865Z,15.14
2023-04-22T19:09:23.813Z,15.04
2023-04-22T19:11:50.488Z,14.93
2023-04-22T19:14:17.633Z,14.73
2023-04-22T19:16:44.333Z,14.84
2023-04-22T19:19:12.194Z,14.68
2023-04-22T19:21:39.436Z,14.53
2023-04-22T19:24:07.119Z,14.45
2023-04-22T19:26:34.140Z,14.56
2023-04-22T19:29:01.073Z,14.46
2023-04-22T19:31:30.957Z,14.33
2023-04-22T19:33:57.862Z,14.19
2023-04-22T19:36:24.584Z,14.15
2023-04-22T19:38:51.238Z,14.12
2023-04-22T19:41:17.942Z,13.98
2023-04-22T19:43:44.661Z,14.05
2023-04-22T19:46:11.744Z,13.90
2023-04-22T19:48:38.744Z,13.78
2023-04-22T19:51:05.526Z,13.87
2023-04-22T19:53:32.323Z,13.82
2023-04-22T19:55:59.042Z,13.71
2023-04-22T19:58:28.130Z,13.62
2023-04-22T20:00:55.050Z,13.61
2023-04-22T20:03:22.546Z,13.38
2023-04-22T20:05:50.290Z,13.42
2023-04-22T20:08:19.627Z,13.46
2023-04-22T20:10:49.230Z,13.29
2023-04-22T20:13:17.076Z,13.23
2023-04-22T20:15:44.472Z,13.23
2023-04-22T20:18:11.483Z,13.19
2023-04-22T20:20:46.029Z,13.12
2023-04-22T20:23:14.184Z,12.94
2023-04-22T20:25:47.106Z,12.92
2023-04-22T20:28:14.218Z,12.94
2023-04-22T20:30:41.231Z,12.90
2023-04-22T20:33:10.733Z,12.93
2023-04-22T20:35:38.612Z,12.78
2023-04-22T20:38:05.449Z,12.73
2023-04-22T20:40:33.572Z,12.78
2023-04-22T20:43:00.370Z,12.85
2023-04-22T20:45:27.235Z,12.78
2023-04-22T20:47:54.095Z,12.62
2023-04-22T20:50:23.638Z,12.55
2023-04-22T20:52:50.316Z,12.48
2023-04-22T20:55:17.139Z,12.50
2023-04-22T20:57:43.875Z,12.42
2023-04-22T21:00:11.454Z,12.49
2023-04-22T21:02:39.007Z,12.46
2023-04-22T21:05:06.760Z,12.32
2023-04-22T21:07:34.716Z,12.46
2023-04-22T21:10:01.498Z,12.34
2023-04-22T21:12:28.404Z,12.38
2023-04-22T21:14:55.381Z,12.26
2023-04-22T21:17:25.510Z,12.31
2023-04-22T21:19:53.449Z,12.32
2023-04-22T21:22:22.152Z,12.22
2023-04-22T21:24:53.805Z,12.16
2023-04-22T21:27:22.286Z,12.03
2023-04-22T21:29:49.701Z,12.20
2023-04-22T21:32:17.440Z,12.16
2023-04-22T21:34:44.711Z,12.09
2023-04-22T21:37:12.201Z,11.99
2023-04-22T21:39:40.109Z,12.14
2023-04-22T21:42:09.619Z,11.97
2023-04-22T21:44:37.205Z,12.02
2023-04-22T21:47:04.615Z,11.81
2023-04-22T21:49:31.716Z,12.02
2023-04-22T21:52:01.225Z,11.82
2023-04-22T21:54:27.856Z,11.82
2023-04-22T21:56:54.563Z,11.78
2023-04-22T21:59:21.394Z,11.83
2023-04-22T22:01:48.534Z,11.77
2023-04-22T22:04:18.174Z,11.64
2023-04-22T22:06:47.211Z,11.62
2023-04-22T22:09:14.208Z,11.71
2023-04-22T22:11:40.947Z,11.75
2023-04-22T22:14:07.614Z,11.78
2023-04-22T22:16:34.407Z,11.77
2023-04-22T22:19:04.444Z,11.77
2023-04-22T22:21:33.101Z,11.74
2023-04-22T22:24:00.075Z,11.72
2023-04-22T22:26:27.356Z,11.85
2023-04-22T22:28:55.955Z,11.92
2023-04-22T22:31:22.991Z,11.83
2023-04-22T22:33:49.678Z,11.80
2023-04-22T22:36:16.476Z,11.89
2023-04-22T22:38:43.912Z,11.91
2023-04-22T22:41:10.758Z,11.93
2023-04-22T22:43:37.526Z,11.92
2023-04-22T22:46:04.383Z,12.07
2023-04-22T22:48:31.225Z,12.07
2023-04-22T22:50:57.909Z,12.25
2023-04-22T22:53:24.578Z,12.26
2023-04-22T22:55:51.187Z,12.46
2023-04-22T22:58:17.870Z,12.30
2023-04-22T23:00:44.547Z,12.34
2023-04-22T23:03:13.992Z,12.42
2023-04-22T23:05:40.783Z,12.42
2023-04-22T23:08:07.446Z,12.43
2023-04-22T23:10:34.052Z,12.33
2023-04-22T23:13:01.672Z,12.31
2023-04-22T23:15:28.375Z,12.29
2023-04-22T23:17:55.047Z,12.31
2023-04-22T23:20:22.248Z,12.40
2023-04-22T23:22:50.854Z,12.54
2023-04-22T23:25:17.691Z,12.52
2023-04-22T23:27:44.680Z,12.52
2023-04-22T23:30:11.976Z,12.52
2023-04-22T23:32:40.236Z,12.42
2023-04-22T23:35:08.415Z,12.53
2023-04-22T23:37:40.315Z,12.45
2023-04-22T23:40:08.095Z,12.37
2023-04-22T23:42:34.706Z,12.42
2023-04-22T23:45:01.383Z,12.37
2023-04-22T23:47:28.285Z,12.34
2023-04-22T23:49:55.807Z,12.33
2023-04-22T23:52:23.399Z,12.33
2023-04-22T23:54:51.399Z,12.21
2023-04-22T23:57:18.179Z,12.32
2023-04-22T23:59:44.992Z,12.13
